Hauptseite
METAR-TAF:

METAR-TAF

Flughäfen :

Flughafen Leipzig/Halle

Leipzig, Deutschland

Breite: 51-25N, Länge: 012-14E, Höhe: 144 m

Beobachtung

Neuester Wetterbericht von vor 15 Minuten, um 21:20 UTC
Wind 8 kt aus Süd/Südwest
Temperatur 6°C
Luftfeuchtigkeit 61%
Luftdruck 1016 hPa
Sichtweite 10 km oder mehr
keine Wolken unter 1500 m und keine Kumulonimbus oder Gewitterwolken

METAR: EDDP 182120Z 20008KT CAVOK 06/M01 Q1016 NOSIG

Zeit: 22:35 (21:35 UTC)

Prognose

Neuester Wetterbericht von vor 4 Stunden und 35 Minuten, um 17:00 UTC
Gültige Prognose vom 18 um 18 UTC bis 19 um 18 UTC
Wind 5 kt aus Süd
Sichtweite 10 km oder mehr
keine Wolken unter 1500 m und keine Kumulonimbus oder Gewitterwolken
Übergehend zu
vom 19 um 07 UTC bis 19 um 10 UTC
Wind 10 kt aus Südwest

TAF: EDDP 181700Z 1818/1918 19005KT CAVOK BECMG 1907/1910 23010KT

Wetterbeobachtungen und Prognosen von mehr als 4000 Flughäfen (METAR und TAF Bericht).

Die verfügbaren Stationen werden durch gelbe und rote Markierungen auf der Karte dargestellt.

Führen Sie die Maus auf sie, um den Namen der Station zu sehen.

Darauf klicken, um die Beobachtung von Wetterbeobachtungen und Prognosen zu sehen.

Um die Karte zu ändern : klicken Sie auf den grünen Tasten mit einem schwarzen Kreuz Zum Vergrößern, auf den grünen Button mit einem Gedankenstrich zu verkleinern, oder auf die grünen Pfeile für benachbarte Karten.


METAR-TAF: